Terminal Aerodrome Forecast
Issued by NWS

Home | Current Version | Previous Version | Text Only | Print | Product List | Glossary On
Versions: 1 2 3 4 5 6 7 8 9 10 11 12 13 14 15 16 17 18 19 20 21 22 23 24 25 26 27 28 29 30 31 32 33 34 35 36
000
FTAK31 PAFA 212320
TAFASC
TAF
PASC 212320Z 2200/2224 20009KT 5SM -RASN BR BKN012
     FM220300 24008KT 6SM BR VCSH FEW008 OVC015
     FM221000 24007KT 5SM -SHSN BR BKN008 OVC015=

USA.gov is the U.S. government's official web portal to all federal, state and local government web resources and services.